International Virtual Aviation Organisation

Russian Federation and Kazakhstan MCD

 

Карточка аэропорта UACC

Внимание!
Информация на этой странице в стадии наполнения.
Если вы не увидели какой-то информации, или заметили неточность - пожалуйста сообщите нам!
Спасибо!
Команда RU-STAFF
Название аэропортаНур-Султан
Название аэропорта (англ.)Nur-Sultan
Превышение1165 ft. (355.1 m.)
Координаты51°1.3319999999999', 71°28.014'
Высота перехода10000
Эшелон переходаby ATC
Коды ответчика0601-0627, 7201-7217
Зона ОрВДНур-Султан РПИ (UACN)
Данные METARUACC 170900Z 25007MPS 9999 -SN SCT009 BKN040 M08/M11 Q1029 R22/39//50 NOSIG RMK QFE740/0987
Проноз погоды (TAF)UACC 170500Z 1706/1806 24007MPS 6000 SCT011 BKN030 TXM08/1709Z TNM15/1801Z TEMPO 1706/1715 25010MPS 3100 -SN DRSN SCT007 BKN020 BECMG 1715/1717 25005MPS TEMPO 1715/1802 27006MPS 3100 -SN BR BKN005 BKN015
NOTAMshow/hide NOTAM
AWOS   TABLE

Информация о ВПП

ВПП Длина ВПП (м.) Покрытие Курс ВПП Частота ILS
043500Асфальтобетон35109.5
223500Асфальтобетон215111.7

Диспетчерские позиции

Позывной Наименование органа УВД Частота
UACC_APPНур-Султан Подход124.6
UACC_R_APPНур-Султан Круг120.7
UACC_TWRНур-Султан Вышка118.7
UACC_GNDНур-Султан Руление119.6



Спутниковое изображение